Aviation Digital Data Service (ADDS)

Output produced by METARs form (0013 UTC 25 November 2017)
found at http://www.aviationweather.gov/adds/metars/
 
KLNS 242353Z 17004KT 10SM CLR 06/M03 A2995 RMK AO2 SLP147 T00561033 10111 20050 51005
KLNS 242353Z 2500/2524 17006KT P6SM SKC 
     FM251100 VRB02KT P6SM SCT150